sensor_id;sensor_type;location;lat;lon;timestamp;P1;durP1;ratioP1;P2;durP2;ratioP2
16354;SDS011;8287;51.644;8.494;2023-07-31T00:00:18;2.78;;;1.90;;
16354;SDS011;8287;51.644;8.494;2023-07-31T00:02:44;3.08;;;1.90;;
16354;SDS011;8287;51.644;8.494;2023-07-31T00:05:11;2.03;;;1.83;;
16354;SDS011;8287;51.644;8.494;2023-07-31T00:07:37;2.03;;;1.50;;
16354;SDS011;8287;51.644;8.494;2023-07-31T00:10:04;3.50;;;1.83;;
16354;SDS011;8287;51.644;8.494;2023-07-31T00:12:33;2.95;;;1.73;;
16354;SDS011;8287;51.644;8.494;2023-07-31T00:14:59;4.18;;;1.77;;
16354;SDS011;8287;51.644;8.494;2023-07-31T00:17:26;2.08;;;1.88;;
16354;SDS011;8287;51.644;8.494;2023-07-31T00:19:53;3.25;;;1.70;;
16354;SDS011;8287;51.644;8.494;2023-07-31T00:22:19;2.33;;;1.63;;
16354;SDS011;8287;51.644;8.494;2023-07-31T00:24:46;3.80;;;1.90;;
16354;SDS011;8287;51.644;8.494;2023-07-31T00:27:12;3.50;;;1.65;;
16354;SDS011;8287;51.644;8.494;2023-07-31T00:29:41;1.90;;;1.70;;
16354;SDS011;8287;51.644;8.494;2023-07-31T00:32:07;2.08;;;1.77;;
16354;SDS011;8287;51.644;8.494;2023-07-31T00:34:34;2.03;;;1.88;;
16354;SDS011;8287;51.644;8.494;2023-07-31T00:37:00;2.05;;;1.52;;
16354;SDS011;8287;51.644;8.494;2023-07-31T00:39:27;1.83;;;1.60;;
16354;SDS011;8287;51.644;8.494;2023-07-31T00:41:54;2.13;;;1.48;;
16354;SDS011;8287;51.644;8.494;2023-07-31T00:44:20;2.30;;;1.70;;
16354;SDS011;8287;51.644;8.494;2023-07-31T00:46:48;3.30;;;1.67;;
16354;SDS011;8287;51.644;8.494;2023-07-31T00:49:15;5.68;;;1.73;;
16354;SDS011;8287;51.644;8.494;2023-07-31T00:51:42;2.22;;;1.52;;
16354;SDS011;8287;51.644;8.494;2023-07-31T00:54:09;1.88;;;1.67;;
16354;SDS011;8287;51.644;8.494;2023-07-31T00:56:35;1.45;;;1.35;;
16354;SDS011;8287;51.644;8.494;2023-07-31T00:59:03;3.03;;;1.67;;
16354;SDS011;8287;51.644;8.494;2023-07-31T01:01:29;3.05;;;1.70;;
16354;SDS011;8287;51.644;8.494;2023-07-31T01:03:57;1.50;;;1.38;;
16354;SDS011;8287;51.644;8.494;2023-07-31T01:06:25;1.20;;;1.10;;
16354;SDS011;8287;51.644;8.494;2023-07-31T01:08:58;2.08;;;1.73;;
16354;SDS011;8287;51.644;8.494;2023-07-31T01:11:30;2.10;;;1.67;;
16354;SDS011;8287;51.644;8.494;2023-07-31T01:13:59;3.33;;;1.60;;
16354;SDS011;8287;51.644;8.494;2023-07-31T01:16:26;2.28;;;1.38;;
16354;SDS011;8287;51.644;8.494;2023-07-31T01:18:53;5.38;;;1.50;;
16354;SDS011;8287;51.644;8.494;2023-07-31T01:21:28;1.45;;;1.35;;
16354;SDS011;8287;51.644;8.494;2023-07-31T01:24:20;2.58;;;1.60;;
16354;SDS011;8287;51.644;8.494;2023-07-31T01:26:51;1.73;;;1.50;;
16354;SDS011;8287;51.644;8.494;2023-07-31T01:29:23;1.90;;;1.40;;
16354;SDS011;8287;51.644;8.494;2023-07-31T01:31:57;1.55;;;1.15;;
16354;SDS011;8287;51.644;8.494;2023-07-31T01:34:28;2.53;;;1.77;;
16354;SDS011;8287;51.644;8.494;2023-07-31T01:36:55;1.65;;;1.27;;
16354;SDS011;8287;51.644;8.494;2023-07-31T01:39:23;1.42;;;1.05;;
16354;SDS011;8287;51.644;8.494;2023-07-31T01:41:51;2.83;;;1.83;;
16354;SDS011;8287;51.644;8.494;2023-07-31T01:44:17;1.85;;;1.20;;
16354;SDS011;8287;51.644;8.494;2023-07-31T01:46:44;2.25;;;1.10;;
16354;SDS011;8287;51.644;8.494;2023-07-31T01:49:11;2.85;;;1.23;;
16354;SDS011;8287;51.644;8.494;2023-07-31T01:51:37;1.15;;;1.00;;
16354;SDS011;8287;51.644;8.494;2023-07-31T01:54:04;3.72;;;1.10;;
16354;SDS011;8287;51.644;8.494;2023-07-31T01:56:30;1.77;;;0.85;;
16354;SDS011;8287;51.644;8.494;2023-07-31T01:58:58;1.75;;;1.05;;
16354;SDS011;8287;51.644;8.494;2023-07-31T02:01:25;1.05;;;0.95;;
16354;SDS011;8287;51.644;8.494;2023-07-31T02:03:51;1.02;;;0.90;;
16354;SDS011;8287;51.644;8.494;2023-07-31T02:06:19;1.67;;;1.13;;
16354;SDS011;8287;51.644;8.494;2023-07-31T02:08:45;1.67;;;0.95;;
16354;SDS011;8287;51.644;8.494;2023-07-31T02:11:12;1.27;;;1.17;;
16354;SDS011;8287;51.644;8.494;2023-07-31T02:13:38;1.98;;;1.30;;
16354;SDS011;8287;51.644;8.494;2023-07-31T02:16:06;1.77;;;1.65;;
16354;SDS011;8287;51.644;8.494;2023-07-31T02:18:33;1.85;;;1.58;;
16354;SDS011;8287;51.644;8.494;2023-07-31T02:20:59;2.10;;;1.83;;
16354;SDS011;8287;51.644;8.494;2023-07-31T02:23:26;4.13;;;1.88;;
16354;SDS011;8287;51.644;8.494;2023-07-31T02:25:52;4.07;;;2.00;;
16354;SDS011;8287;51.644;8.494;2023-07-31T02:28:19;3.47;;;2.28;;
16354;SDS011;8287;51.644;8.494;2023-07-31T02:30:45;3.30;;;2.33;;
16354;SDS011;8287;51.644;8.494;2023-07-31T02:33:14;7.00;;;2.65;;
16354;SDS011;8287;51.644;8.494;2023-07-31T02:35:41;5.63;;;2.53;;
16354;SDS011;8287;51.644;8.494;2023-07-31T02:38:07;4.78;;;3.03;;
16354;SDS011;8287;51.644;8.494;2023-07-31T02:40:34;4.03;;;2.78;;
16354;SDS011;8287;51.644;8.494;2023-07-31T02:43:00;6.75;;;3.40;;
16354;SDS011;8287;51.644;8.494;2023-07-31T02:45:27;4.63;;;2.95;;
16354;SDS011;8287;51.644;8.494;2023-07-31T02:47:53;4.68;;;2.65;;
16354;SDS011;8287;51.644;8.494;2023-07-31T02:50:21;5.65;;;2.80;;
16354;SDS011;8287;51.644;8.494;2023-07-31T02:52:48;6.72;;;2.83;;
16354;SDS011;8287;51.644;8.494;2023-07-31T02:55:15;5.95;;;3.05;;
16354;SDS011;8287;51.644;8.494;2023-07-31T02:57:41;3.35;;;2.47;;
16354;SDS011;8287;51.644;8.494;2023-07-31T03:00:08;6.22;;;3.15;;
16354;SDS011;8287;51.644;8.494;2023-07-31T03:02:35;6.68;;;2.75;;
16354;SDS011;8287;51.644;8.494;2023-07-31T03:05:01;5.22;;;2.80;;
16354;SDS011;8287;51.644;8.494;2023-07-31T03:07:29;6.65;;;3.42;;
16354;SDS011;8287;51.644;8.494;2023-07-31T03:09:56;7.47;;;3.05;;
16354;SDS011;8287;51.644;8.494;2023-07-31T03:12:23;3.67;;;2.55;;
16354;SDS011;8287;51.644;8.494;2023-07-31T03:14:50;8.93;;;3.25;;
16354;SDS011;8287;51.644;8.494;2023-07-31T03:17:16;5.05;;;2.42;;
16354;SDS011;8287;51.644;8.494;2023-07-31T03:19:43;5.88;;;2.88;;
16354;SDS011;8287;51.644;8.494;2023-07-31T03:22:09;6.97;;;2.63;;
16354;SDS011;8287;51.644;8.494;2023-07-31T03:24:37;4.95;;;2.47;;
16354;SDS011;8287;51.644;8.494;2023-07-31T03:27:04;6.93;;;2.95;;
16354;SDS011;8287;51.644;8.494;2023-07-31T03:29:31;3.60;;;2.40;;
16354;SDS011;8287;51.644;8.494;2023-07-31T03:31:58;7.93;;;3.33;;
16354;SDS011;8287;51.644;8.494;2023-07-31T03:34:25;5.13;;;2.38;;
16354;SDS011;8287;51.644;8.494;2023-07-31T03:36:52;7.00;;;2.25;;
16354;SDS011;8287;51.644;8.494;2023-07-31T03:39:19;4.78;;;2.63;;
16354;SDS011;8287;51.644;8.494;2023-07-31T03:41:47;5.68;;;2.42;;
16354;SDS011;8287;51.644;8.494;2023-07-31T03:44:13;4.68;;;2.72;;
16354;SDS011;8287;51.644;8.494;2023-07-31T03:46:40;4.30;;;2.40;;
16354;SDS011;8287;51.644;8.494;2023-07-31T03:49:07;6.50;;;2.90;;
16354;SDS011;8287;51.644;8.494;2023-07-31T03:51:33;4.20;;;2.47;;
16354;SDS011;8287;51.644;8.494;2023-07-31T03:54:00;6.95;;;2.88;;
16354;SDS011;8287;51.644;8.494;2023-07-31T03:56:26;7.68;;;3.33;;
16354;SDS011;8287;51.644;8.494;2023-07-31T03:58:54;4.57;;;3.10;;
16354;SDS011;8287;51.644;8.494;2023-07-31T04:01:21;5.50;;;2.70;;
16354;SDS011;8287;51.644;8.494;2023-07-31T04:03:47;4.60;;;2.58;;
16354;SDS011;8287;51.644;8.494;2023-07-31T04:06:14;6.63;;;2.67;;
16354;SDS011;8287;51.644;8.494;2023-07-31T04:08:43;6.90;;;3.08;;
16354;SDS011;8287;51.644;8.494;2023-07-31T04:11:09;6.07;;;2.58;;
16354;SDS011;8287;51.644;8.494;2023-07-31T04:13:36;4.70;;;2.63;;
16354;SDS011;8287;51.644;8.494;2023-07-31T04:16:04;5.07;;;3.13;;
16354;SDS011;8287;51.644;8.494;2023-07-31T04:18:31;6.38;;;3.15;;
16354;SDS011;8287;51.644;8.494;2023-07-31T04:20:58;5.90;;;3.03;;
16354;SDS011;8287;51.644;8.494;2023-07-31T04:23:26;6.32;;;2.90;;
16354;SDS011;8287;51.644;8.494;2023-07-31T04:25:53;4.35;;;2.97;;
16354;SDS011;8287;51.644;8.494;2023-07-31T04:28:19;8.63;;;3.30;;
16354;SDS011;8287;51.644;8.494;2023-07-31T04:30:46;6.30;;;3.30;;
16354;SDS011;8287;51.644;8.494;2023-07-31T04:33:14;5.10;;;2.85;;
16354;SDS011;8287;51.644;8.494;2023-07-31T04:35:41;4.68;;;2.78;;
16354;SDS011;8287;51.644;8.494;2023-07-31T04:38:07;8.07;;;3.20;;
16354;SDS011;8287;51.644;8.494;2023-07-31T04:40:34;7.60;;;3.22;;
16354;SDS011;8287;51.644;8.494;2023-07-31T04:43:00;5.32;;;2.80;;
16354;SDS011;8287;51.644;8.494;2023-07-31T04:45:27;7.88;;;3.25;;
16354;SDS011;8287;51.644;8.494;2023-07-31T04:47:53;6.25;;;3.08;;
16354;SDS011;8287;51.644;8.494;2023-07-31T04:50:21;5.03;;;2.92;;
16354;SDS011;8287;51.644;8.494;2023-07-31T04:52:48;7.38;;;3.08;;
16354;SDS011;8287;51.644;8.494;2023-07-31T04:55:14;5.07;;;3.15;;
16354;SDS011;8287;51.644;8.494;2023-07-31T04:57:41;5.22;;;2.60;;
16354;SDS011;8287;51.644;8.494;2023-07-31T05:00:08;6.90;;;3.20;;
16354;SDS011;8287;51.644;8.494;2023-07-31T05:02:35;11.25;;;3.03;;
16354;SDS011;8287;51.644;8.494;2023-07-31T05:05:02;7.38;;;3.10;;
16354;SDS011;8287;51.644;8.494;2023-07-31T05:07:30;8.40;;;3.40;;
16354;SDS011;8287;51.644;8.494;2023-07-31T05:09:56;8.20;;;3.58;;
16354;SDS011;8287;51.644;8.494;2023-07-31T05:12:23;7.30;;;3.40;;
16354;SDS011;8287;51.644;8.494;2023-07-31T05:14:49;8.05;;;3.58;;
16354;SDS011;8287;51.644;8.494;2023-07-31T05:17:16;6.57;;;3.20;;
16354;SDS011;8287;51.644;8.494;2023-07-31T05:19:43;6.43;;;2.85;;
16354;SDS011;8287;51.644;8.494;2023-07-31T05:22:09;8.60;;;3.20;;
16354;SDS011;8287;51.644;8.494;2023-07-31T05:24:37;9.32;;;3.35;;
16354;SDS011;8287;51.644;8.494;2023-07-31T05:27:04;6.30;;;3.13;;
16354;SDS011;8287;51.644;8.494;2023-07-31T05:29:31;4.63;;;2.97;;
16354;SDS011;8287;51.644;8.494;2023-07-31T05:31:58;6.60;;;3.40;;
16354;SDS011;8287;51.644;8.494;2023-07-31T05:34:24;6.07;;;3.05;;
16354;SDS011;8287;51.644;8.494;2023-07-31T05:36:51;6.25;;;3.63;;
16354;SDS011;8287;51.644;8.494;2023-07-31T05:39:17;5.18;;;2.90;;
16354;SDS011;8287;51.644;8.494;2023-07-31T05:41:46;5.38;;;2.95;;
16354;SDS011;8287;51.644;8.494;2023-07-31T05:44:13;5.95;;;3.00;;
16354;SDS011;8287;51.644;8.494;2023-07-31T05:46:39;9.70;;;3.20;;
16354;SDS011;8287;51.644;8.494;2023-07-31T05:49:06;6.47;;;3.10;;
16354;SDS011;8287;51.644;8.494;2023-07-31T05:51:33;10.82;;;3.50;;
16354;SDS011;8287;51.644;8.494;2023-07-31T05:54:00;5.50;;;2.60;;
16354;SDS011;8287;51.644;8.494;2023-07-31T05:56:26;4.88;;;1.92;;
16354;SDS011;8287;51.644;8.494;2023-07-31T05:58:54;6.78;;;2.63;;
16354;SDS011;8287;51.644;8.494;2023-07-31T06:01:22;6.00;;;3.28;;
16354;SDS011;8287;51.644;8.494;2023-07-31T06:03:48;5.05;;;3.15;;
16354;SDS011;8287;51.644;8.494;2023-07-31T06:06:15;5.13;;;3.00;;
16354;SDS011;8287;51.644;8.494;2023-07-31T06:08:42;8.88;;;2.95;;
16354;SDS011;8287;51.644;8.494;2023-07-31T06:11:08;6.72;;;3.20;;
16354;SDS011;8287;51.644;8.494;2023-07-31T06:13:35;6.95;;;2.78;;
16354;SDS011;8287;51.644;8.494;2023-07-31T06:16:04;6.88;;;3.00;;
16354;SDS011;8287;51.644;8.494;2023-07-31T06:18:31;10.35;;;2.90;;
16354;SDS011;8287;51.644;8.494;2023-07-31T06:20:58;7.72;;;3.20;;
16354;SDS011;8287;51.644;8.494;2023-07-31T06:23:24;8.10;;;3.08;;
16354;SDS011;8287;51.644;8.494;2023-07-31T06:25:51;8.05;;;3.10;;
16354;SDS011;8287;51.644;8.494;2023-07-31T06:28:17;9.75;;;3.00;;
16354;SDS011;8287;51.644;8.494;2023-07-31T06:30:44;5.55;;;2.45;;
16354;SDS011;8287;51.644;8.494;2023-07-31T06:33:12;5.53;;;2.95;;
16354;SDS011;8287;51.644;8.494;2023-07-31T06:35:39;4.55;;;2.53;;
16354;SDS011;8287;51.644;8.494;2023-07-31T06:38:05;5.18;;;2.70;;
16354;SDS011;8287;51.644;8.494;2023-07-31T06:40:32;3.67;;;2.55;;
16354;SDS011;8287;51.644;8.494;2023-07-31T06:42:59;8.77;;;3.10;;
16354;SDS011;8287;51.644;8.494;2023-07-31T06:45:31;5.47;;;3.35;;
16354;SDS011;8287;51.644;8.494;2023-07-31T06:47:58;4.45;;;2.83;;
16354;SDS011;8287;51.644;8.494;2023-07-31T06:50:28;5.57;;;2.72;;
16354;SDS011;8287;51.644;8.494;2023-07-31T06:52:54;5.20;;;2.55;;
16354;SDS011;8287;51.644;8.494;2023-07-31T06:55:21;8.07;;;3.25;;
16354;SDS011;8287;51.644;8.494;2023-07-31T06:57:48;4.60;;;2.90;;
16354;SDS011;8287;51.644;8.494;2023-07-31T07:00:15;4.82;;;3.00;;
16354;SDS011;8287;51.644;8.494;2023-07-31T07:02:42;4.57;;;2.35;;
16354;SDS011;8287;51.644;8.494;2023-07-31T07:05:09;6.45;;;2.95;;
16354;SDS011;8287;51.644;8.494;2023-07-31T07:07:38;4.40;;;2.83;;
16354;SDS011;8287;51.644;8.494;2023-07-31T07:10:05;5.43;;;3.63;;
16354;SDS011;8287;51.644;8.494;2023-07-31T07:12:32;3.88;;;3.15;;
16354;SDS011;8287;51.644;8.494;2023-07-31T07:14:59;4.55;;;3.20;;
16354;SDS011;8287;51.644;8.494;2023-07-31T07:17:26;6.53;;;3.60;;
16354;SDS011;8287;51.644;8.494;2023-07-31T07:19:54;5.10;;;3.10;;
16354;SDS011;8287;51.644;8.494;2023-07-31T07:22:21;5.97;;;3.20;;
16354;SDS011;8287;51.644;8.494;2023-07-31T07:24:49;4.55;;;2.95;;
16354;SDS011;8287;51.644;8.494;2023-07-31T07:27:16;3.25;;;2.70;;
16354;SDS011;8287;51.644;8.494;2023-07-31T07:29:42;3.65;;;2.67;;
16354;SDS011;8287;51.644;8.494;2023-07-31T07:32:09;6.68;;;3.20;;
16354;SDS011;8287;51.644;8.494;2023-07-31T07:34:37;4.95;;;2.97;;
16354;SDS011;8287;51.644;8.494;2023-07-31T07:37:03;7.50;;;3.42;;
16354;SDS011;8287;51.644;8.494;2023-07-31T07:39:30;4.45;;;3.17;;
16354;SDS011;8287;51.644;8.494;2023-07-31T07:41:58;5.20;;;3.55;;
16354;SDS011;8287;51.644;8.494;2023-07-31T07:44:25;4.32;;;3.35;;
16354;SDS011;8287;51.644;8.494;2023-07-31T07:46:51;4.15;;;2.97;;
16354;SDS011;8287;51.644;8.494;2023-07-31T07:49:18;5.97;;;3.40;;
16354;SDS011;8287;51.644;8.494;2023-07-31T07:51:47;5.22;;;3.50;;
16354;SDS011;8287;51.644;8.494;2023-07-31T07:54:14;5.25;;;3.25;;
16354;SDS011;8287;51.644;8.494;2023-07-31T07:56:41;7.80;;;3.45;;
16354;SDS011;8287;51.644;8.494;2023-07-31T07:59:10;4.60;;;3.17;;
16354;SDS011;8287;51.644;8.494;2023-07-31T08:01:36;5.32;;;3.28;;
16354;SDS011;8287;51.644;8.494;2023-07-31T08:04:03;6.78;;;3.67;;
16354;SDS011;8287;51.644;8.494;2023-07-31T08:06:30;4.30;;;3.05;;
16354;SDS011;8287;51.644;8.494;2023-07-31T08:08:56;5.28;;;3.92;;
16354;SDS011;8287;51.644;8.494;2023-07-31T08:11:23;5.85;;;3.90;;
16354;SDS011;8287;51.644;8.494;2023-07-31T08:13:49;4.95;;;2.83;;
16354;SDS011;8287;51.644;8.494;2023-07-31T08:16:17;4.93;;;3.25;;
16354;SDS011;8287;51.644;8.494;2023-07-31T08:18:44;3.50;;;2.85;;
16354;SDS011;8287;51.644;8.494;2023-07-31T08:21:10;5.78;;;3.17;;
16354;SDS011;8287;51.644;8.494;2023-07-31T08:23:37;3.58;;;3.08;;
16354;SDS011;8287;51.644;8.494;2023-07-31T08:26:04;6.10;;;3.45;;
16354;SDS011;8287;51.644;8.494;2023-07-31T08:28:30;6.57;;;3.30;;
16354;SDS011;8287;51.644;8.494;2023-07-31T08:30:57;7.18;;;2.90;;
16354;SDS011;8287;51.644;8.494;2023-07-31T08:33:25;5.55;;;3.30;;
16354;SDS011;8287;51.644;8.494;2023-07-31T08:35:51;10.30;;;2.80;;
16354;SDS011;8287;51.644;8.494;2023-07-31T08:38:18;4.50;;;2.75;;
16354;SDS011;8287;51.644;8.494;2023-07-31T08:40:44;4.03;;;2.30;;
16354;SDS011;8287;51.644;8.494;2023-07-31T08:43:11;6.18;;;2.63;;
16354;SDS011;8287;51.644;8.494;2023-07-31T08:45:38;5.38;;;3.00;;
16354;SDS011;8287;51.644;8.494;2023-07-31T08:48:07;4.07;;;2.58;;
16354;SDS011;8287;51.644;8.494;2023-07-31T08:50:35;6.20;;;3.20;;
16354;SDS011;8287;51.644;8.494;2023-07-31T08:53:04;5.80;;;2.72;;
16354;SDS011;8287;51.644;8.494;2023-07-31T08:55:30;3.25;;;2.40;;
16354;SDS011;8287;51.644;8.494;2023-07-31T08:57:58;2.75;;;2.42;;
16354;SDS011;8287;51.644;8.494;2023-07-31T09:00:26;5.88;;;2.83;;
16354;SDS011;8287;51.644;8.494;2023-07-31T09:02:56;5.18;;;2.67;;
16354;SDS011;8287;51.644;8.494;2023-07-31T09:05:26;3.97;;;2.58;;
16354;SDS011;8287;51.644;8.494;2023-07-31T09:07:54;3.50;;;2.90;;
16354;SDS011;8287;51.644;8.494;2023-07-31T09:10:22;5.18;;;2.65;;
16354;SDS011;8287;51.644;8.494;2023-07-31T09:12:50;2.90;;;2.60;;
16354;SDS011;8287;51.644;8.494;2023-07-31T09:15:18;2.45;;;2.10;;
16354;SDS011;8287;51.644;8.494;2023-07-31T09:17:45;2.85;;;2.40;;
16354;SDS011;8287;51.644;8.494;2023-07-31T09:20:14;5.13;;;2.42;;
16354;SDS011;8287;51.644;8.494;2023-07-31T09:22:43;4.40;;;2.45;;
16354;SDS011;8287;51.644;8.494;2023-07-31T09:25:15;4.95;;;2.30;;
16354;SDS011;8287;51.644;8.494;2023-07-31T09:27:46;3.53;;;2.20;;
16354;SDS011;8287;51.644;8.494;2023-07-31T09:30:14;4.03;;;2.28;;
16354;SDS011;8287;51.644;8.494;2023-07-31T09:32:41;4.57;;;3.08;;
16354;SDS011;8287;51.644;8.494;2023-07-31T09:35:19;2.53;;;2.33;;
16354;SDS011;8287;51.644;8.494;2023-07-31T09:37:50;5.88;;;2.60;;
16354;SDS011;8287;51.644;8.494;2023-07-31T09:40:29;3.17;;;2.33;;
16354;SDS011;8287;51.644;8.494;2023-07-31T09:42:57;3.38;;;2.40;;
16354;SDS011;8287;51.644;8.494;2023-07-31T09:45:25;3.67;;;2.30;;
16354;SDS011;8287;51.644;8.494;2023-07-31T09:47:52;3.05;;;2.30;;
16354;SDS011;8287;51.644;8.494;2023-07-31T09:50:19;6.53;;;2.28;;
16354;SDS011;8287;51.644;8.494;2023-07-31T09:52:47;2.10;;;1.90;;
16354;SDS011;8287;51.644;8.494;2023-07-31T09:55:13;2.47;;;1.90;;
16354;SDS011;8287;51.644;8.494;2023-07-31T09:57:42;2.67;;;2.30;;
16354;SDS011;8287;51.644;8.494;2023-07-31T10:00:10;3.38;;;2.15;;
16354;SDS011;8287;51.644;8.494;2023-07-31T10:02:38;2.30;;;1.80;;
16354;SDS011;8287;51.644;8.494;2023-07-31T10:05:05;6.72;;;2.10;;
16354;SDS011;8287;51.644;8.494;2023-07-31T10:07:34;2.23;;;2.03;;
16354;SDS011;8287;51.644;8.494;2023-07-31T10:10:05;2.42;;;1.70;;
16354;SDS011;8287;51.644;8.494;2023-07-31T10:12:33;4.30;;;1.92;;
16354;SDS011;8287;51.644;8.494;2023-07-31T10:15:02;2.65;;;2.13;;
16354;SDS011;8287;51.644;8.494;2023-07-31T10:17:30;2.40;;;2.17;;
16354;SDS011;8287;51.644;8.494;2023-07-31T10:19:57;3.30;;;1.92;;
16354;SDS011;8287;51.644;8.494;2023-07-31T10:22:26;2.83;;;1.95;;
16354;SDS011;8287;51.644;8.494;2023-07-31T10:24:52;2.20;;;2.00;;
16354;SDS011;8287;51.644;8.494;2023-07-31T10:27:21;2.65;;;1.92;;
16354;SDS011;8287;51.644;8.494;2023-07-31T10:29:47;1.92;;;1.60;;
16354;SDS011;8287;51.644;8.494;2023-07-31T10:32:16;1.85;;;1.73;;
16354;SDS011;8287;51.644;8.494;2023-07-31T10:34:43;1.40;;;1.30;;
16354;SDS011;8287;51.644;8.494;2023-07-31T10:37:20;1.95;;;1.65;;
16354;SDS011;8287;51.644;8.494;2023-07-31T10:39:54;1.63;;;1.50;;
16354;SDS011;8287;51.644;8.494;2023-07-31T10:42:27;2.72;;;1.58;;
16354;SDS011;8287;51.644;8.494;2023-07-31T10:44:56;1.67;;;1.30;;
16354;SDS011;8287;51.644;8.494;2023-07-31T10:47:25;2.17;;;1.45;;
16354;SDS011;8287;51.644;8.494;2023-07-31T10:49:52;2.35;;;1.40;;
16354;SDS011;8287;51.644;8.494;2023-07-31T10:52:19;2.15;;;1.42;;
16354;SDS011;8287;51.644;8.494;2023-07-31T10:54:48;1.40;;;1.30;;
16354;SDS011;8287;51.644;8.494;2023-07-31T10:57:19;2.92;;;1.60;;
16354;SDS011;8287;51.644;8.494;2023-07-31T10:59:45;1.95;;;1.63;;
16354;SDS011;8287;51.644;8.494;2023-07-31T11:02:23;1.40;;;1.30;;
16354;SDS011;8287;51.644;8.494;2023-07-31T11:07:47;1.50;;;1.30;;
16354;SDS011;8287;51.644;8.494;2023-07-31T11:10:18;0.80;;;0.80;;
16354;SDS011;8287;51.644;8.494;2023-07-31T11:12:45;1.23;;;1.10;;
16354;SDS011;8287;51.644;8.494;2023-07-31T11:15:12;1.60;;;1.50;;
16354;SDS011;8287;51.644;8.494;2023-07-31T11:17:39;2.35;;;1.30;;
16354;SDS011;8287;51.644;8.494;2023-07-31T11:20:06;0.90;;;0.90;;
16354;SDS011;8287;51.644;8.494;2023-07-31T11:22:34;1.85;;;1.00;;
16354;SDS011;8287;51.644;8.494;2023-07-31T11:25:02;0.93;;;0.70;;
16354;SDS011;8287;51.644;8.494;2023-07-31T11:27:29;1.58;;;1.17;;
16354;SDS011;8287;51.644;8.494;2023-07-31T11:29:59;1.17;;;0.90;;
16354;SDS011;8287;51.644;8.494;2023-07-31T11:32:27;0.95;;;0.75;;
16354;SDS011;8287;51.644;8.494;2023-07-31T11:34:53;0.80;;;0.80;;
16354;SDS011;8287;51.644;8.494;2023-07-31T11:37:20;1.15;;;1.10;;
16354;SDS011;8287;51.644;8.494;2023-07-31T11:39:58;1.33;;;1.00;;
16354;SDS011;8287;51.644;8.494;2023-07-31T11:42:26;0.98;;;0.80;;
16354;SDS011;8287;51.644;8.494;2023-07-31T11:44:53;1.15;;;0.85;;
16354;SDS011;8287;51.644;8.494;2023-07-31T11:47:19;0.80;;;0.80;;
16354;SDS011;8287;51.644;8.494;2023-07-31T11:49:46;2.60;;;0.90;;
16354;SDS011;8287;51.644;8.494;2023-07-31T11:52:15;0.80;;;0.63;;
16354;SDS011;8287;51.644;8.494;2023-07-31T11:54:42;1.67;;;0.80;;
16354;SDS011;8287;51.644;8.494;2023-07-31T11:57:09;1.25;;;0.98;;
16354;SDS011;8287;51.644;8.494;2023-07-31T11:59:37;1.02;;;0.90;;
16354;SDS011;8287;51.644;8.494;2023-07-31T12:02:04;0.60;;;0.60;;
16354;SDS011;8287;51.644;8.494;2023-07-31T12:04:31;1.52;;;0.60;;
16354;SDS011;8287;51.644;8.494;2023-07-31T12:06:59;0.98;;;0.63;;
16354;SDS011;8287;51.644;8.494;2023-07-31T12:09:26;0.68;;;0.65;;
16354;SDS011;8287;51.644;8.494;2023-07-31T12:11:52;0.63;;;0.63;;
16354;SDS011;8287;51.644;8.494;2023-07-31T12:14:19;0.70;;;0.70;;
16354;SDS011;8287;51.644;8.494;2023-07-31T12:16:49;1.02;;;0.90;;
16354;SDS011;8287;51.644;8.494;2023-07-31T12:19:20;1.17;;;1.08;;
16354;SDS011;8287;51.644;8.494;2023-07-31T12:21:47;0.98;;;0.57;;
16354;SDS011;8287;51.644;8.494;2023-07-31T12:24:14;0.50;;;0.50;;
16354;SDS011;8287;51.644;8.494;2023-07-31T12:26:42;0.60;;;0.60;;
16354;SDS011;8287;51.644;8.494;2023-07-31T12:29:12;0.70;;;0.70;;
16354;SDS011;8287;51.644;8.494;2023-07-31T12:31:40;0.55;;;0.55;;
16354;SDS011;8287;51.644;8.494;2023-07-31T12:34:15;0.70;;;0.68;;
16354;SDS011;8287;51.644;8.494;2023-07-31T12:36:43;1.27;;;1.13;;
16354;SDS011;8287;51.644;8.494;2023-07-31T12:39:10;0.88;;;0.85;;
16354;SDS011;8287;51.644;8.494;2023-07-31T12:41:37;2.38;;;0.90;;
16354;SDS011;8287;51.644;8.494;2023-07-31T12:44:03;0.95;;;0.90;;
16354;SDS011;8287;51.644;8.494;2023-07-31T12:46:30;1.20;;;1.10;;
16354;SDS011;8287;51.644;8.494;2023-07-31T12:48:57;1.20;;;0.90;;
16354;SDS011;8287;51.644;8.494;2023-07-31T12:51:25;1.85;;;1.25;;
16354;SDS011;8287;51.644;8.494;2023-07-31T12:53:52;2.78;;;0.93;;
16354;SDS011;8287;51.644;8.494;2023-07-31T12:56:18;1.17;;;1.08;;
16354;SDS011;8287;51.644;8.494;2023-07-31T12:58:45;0.90;;;0.90;;
16354;SDS011;8287;51.644;8.494;2023-07-31T13:01:12;1.40;;;1.30;;
16354;SDS011;8287;51.644;8.494;2023-07-31T13:03:38;1.52;;;1.40;;
16354;SDS011;8287;51.644;8.494;2023-07-31T13:06:05;1.92;;;1.50;;
16354;SDS011;8287;51.644;8.494;2023-07-31T13:08:33;1.52;;;1.10;;
16354;SDS011;8287;51.644;8.494;2023-07-31T13:10:59;1.67;;;1.50;;
16354;SDS011;8287;51.644;8.494;2023-07-31T13:13:26;1.85;;;1.20;;
16354;SDS011;8287;51.644;8.494;2023-07-31T13:15:52;2.15;;;1.25;;
16354;SDS011;8287;51.644;8.494;2023-07-31T13:18:19;1.90;;;1.27;;
16354;SDS011;8287;51.644;8.494;2023-07-31T13:20:46;1.90;;;1.58;;
16354;SDS011;8287;51.644;8.494;2023-07-31T13:23:12;1.15;;;1.10;;
16354;SDS011;8287;51.644;8.494;2023-07-31T13:25:40;1.45;;;1.35;;
16354;SDS011;8287;51.644;8.494;2023-07-31T13:28:07;1.40;;;1.10;;
16354;SDS011;8287;51.644;8.494;2023-07-31T13:30:33;1.83;;;0.98;;
16354;SDS011;8287;51.644;8.494;2023-07-31T13:33:00;1.30;;;1.20;;
16354;SDS011;8287;51.644;8.494;2023-07-31T13:35:27;1.58;;;1.30;;
16354;SDS011;8287;51.644;8.494;2023-07-31T13:37:53;1.20;;;1.10;;
16354;SDS011;8287;51.644;8.494;2023-07-31T13:40:20;1.00;;;1.00;;
16354;SDS011;8287;51.644;8.494;2023-07-31T13:42:49;1.63;;;1.38;;
16354;SDS011;8287;51.644;8.494;2023-07-31T13:45:15;1.27;;;1.20;;
16354;SDS011;8287;51.644;8.494;2023-07-31T13:47:42;5.63;;;1.50;;
16354;SDS011;8287;51.644;8.494;2023-07-31T13:50:09;1.13;;;1.02;;
16354;SDS011;8287;51.644;8.494;2023-07-31T13:52:35;1.20;;;1.10;;
16354;SDS011;8287;51.644;8.494;2023-07-31T13:55:02;1.30;;;1.20;;
16354;SDS011;8287;51.644;8.494;2023-07-31T13:57:29;1.00;;;1.00;;
16354;SDS011;8287;51.644;8.494;2023-07-31T13:59:57;1.60;;;1.15;;
16354;SDS011;8287;51.644;8.494;2023-07-31T14:02:24;1.83;;;0.75;;
16354;SDS011;8287;51.644;8.494;2023-07-31T14:04:50;2.22;;;1.33;;
16354;SDS011;8287;51.644;8.494;2023-07-31T14:07:17;1.17;;;1.08;;
16354;SDS011;8287;51.644;8.494;2023-07-31T14:09:43;1.20;;;0.90;;
16354;SDS011;8287;51.644;8.494;2023-07-31T14:12:10;1.65;;;1.17;;
16354;SDS011;8287;51.644;8.494;2023-07-31T14:14:37;1.23;;;1.15;;
16354;SDS011;8287;51.644;8.494;2023-07-31T14:17:05;1.10;;;1.00;;
16354;SDS011;8287;51.644;8.494;2023-07-31T14:19:32;1.30;;;1.20;;
16354;SDS011;8287;51.644;8.494;2023-07-31T14:21:58;1.00;;;1.00;;
16354;SDS011;8287;51.644;8.494;2023-07-31T14:24:25;3.42;;;1.40;;
16354;SDS011;8287;51.644;8.494;2023-07-31T14:26:52;2.55;;;1.30;;
16354;SDS011;8287;51.644;8.494;2023-07-31T14:29:18;2.38;;;1.15;;
16354;SDS011;8287;51.644;8.494;2023-07-31T14:31:45;1.90;;;1.60;;
16354;SDS011;8287;51.644;8.494;2023-07-31T14:34:13;2.45;;;1.55;;
16354;SDS011;8287;51.644;8.494;2023-07-31T14:36:40;1.63;;;1.52;;
16354;SDS011;8287;51.644;8.494;2023-07-31T14:39:07;1.75;;;1.65;;
16354;SDS011;8287;51.644;8.494;2023-07-31T14:41:34;2.38;;;1.50;;
16354;SDS011;8287;51.644;8.494;2023-07-31T14:44:01;1.80;;;1.70;;
16354;SDS011;8287;51.644;8.494;2023-07-31T14:46:27;1.40;;;1.40;;
16354;SDS011;8287;51.644;8.494;2023-07-31T14:48:54;1.98;;;1.80;;
16354;SDS011;8287;51.644;8.494;2023-07-31T14:51:22;1.73;;;1.63;;
16354;SDS011;8287;51.644;8.494;2023-07-31T14:53:48;1.80;;;1.70;;
16354;SDS011;8287;51.644;8.494;2023-07-31T14:56:15;2.13;;;2.03;;
16354;SDS011;8287;51.644;8.494;2023-07-31T14:58:42;1.85;;;1.75;;
16354;SDS011;8287;51.644;8.494;2023-07-31T15:01:08;2.00;;;1.63;;
16354;SDS011;8287;51.644;8.494;2023-07-31T15:03:35;3.05;;;1.70;;